Terminal Aerodrome Forecast
Issued by NWS Grand Forks, ND

Home | Current Version | Previous Version | Graphics & Text | Print | Product List | Glossary On
Versions: 1 2 3 4 5 6 7 8 9 10 11 12
173
FTUS43 KFGF 170538
TAFGFK
TAF
KGFK 170538Z 1706/1806 25004KT P6SM SKC
     FM171200 23005KT P6SM SCT250
     FM171700 20010KT P6SM SCT200=

USA.gov is the U.S. government's official web portal to all federal, state and local government web resources and services.